createdAt,value
2023-03-04T00:00:05.851Z,30.90
2023-03-04T00:02:32.831Z,28.97
2023-03-04T00:04:59.446Z,32.10
2023-03-04T00:07:26.245Z,25.90
2023-03-04T00:09:52.848Z,28.70
2023-03-04T00:12:19.544Z,30.43
2023-03-04T00:14:46.366Z,27.33
2023-03-04T00:17:13.014Z,25.93
2023-03-04T00:19:39.624Z,25.37
2023-03-04T00:22:06.364Z,26.63
2023-03-04T00:24:33.156Z,28.00
2023-03-04T00:26:59.765Z,27.97
2023-03-04T00:29:27.268Z,30.17
2023-03-04T00:31:54.072Z,28.30
2023-03-04T00:34:20.840Z,33.20
2023-03-04T00:36:47.656Z,29.20
2023-03-04T00:39:14.892Z,31.87
2023-03-04T00:41:41.575Z,32.17
2023-03-04T00:44:08.224Z,30.57
2023-03-04T00:46:35.210Z,34.07
2023-03-04T00:49:01.997Z,30.53
2023-03-04T00:51:28.601Z,34.60
2023-03-04T00:53:55.340Z,35.07
2023-03-04T00:56:22.015Z,30.00
2023-03-04T00:58:48.590Z,27.93
2023-03-04T01:01:15.262Z,20.80
2023-03-04T01:03:42.551Z,24.90
2023-03-04T01:06:09.272Z,25.57
2023-03-04T01:08:36.421Z,26.13
2023-03-04T01:11:04.533Z,21.30
2023-03-04T01:13:31.413Z,25.17
2023-03-04T01:15:58.055Z,25.23
2023-03-04T01:18:25.274Z,25.83
2023-03-04T01:20:52.540Z,26.07
2023-03-04T01:23:19.148Z,25.17
2023-03-04T01:25:48.132Z,27.50
2023-03-04T01:28:15.772Z,25.40
2023-03-04T01:30:42.396Z,23.97
2023-03-04T01:33:09.223Z,26.90
2023-03-04T01:35:36.859Z,22.27
2023-03-04T01:38:05.120Z,24.93
2023-03-04T01:40:32.218Z,26.90
2023-03-04T01:42:59.080Z,25.20
2023-03-04T01:45:25.917Z,25.50
2023-03-04T01:47:52.796Z,26.20
2023-03-04T01:50:28.413Z,30.37
2023-03-04T01:52:55.113Z,30.83
2023-03-04T01:55:23.302Z,33.60
2023-03-04T01:57:51.403Z,27.20
2023-03-04T02:00:26.240Z,29.30
2023-03-04T02:02:57.406Z,28.60
2023-03-04T02:05:24.824Z,31.27
2023-03-04T02:07:53.266Z,26.43
2023-03-04T02:10:20.824Z,29.87
2023-03-04T02:12:47.561Z,29.30
2023-03-04T02:15:14.390Z,28.70
2023-03-04T02:17:41.210Z,31.37
2023-03-04T02:20:20.861Z,28.67
2023-03-04T02:23:15.464Z,26.83
2023-03-04T02:25:53.012Z,28.43
2023-03-04T02:28:19.823Z,31.60
2023-03-04T02:30:46.760Z,29.13
2023-03-04T02:33:17.688Z,34.63
2023-03-04T02:35:44.875Z,32.80
2023-03-04T02:38:12.760Z,34.27
2023-03-04T02:40:42.539Z,32.17
2023-03-04T02:43:12.139Z,32.90
2023-03-04T02:45:45.425Z,31.73
2023-03-04T02:48:13.116Z,29.03
2023-03-04T02:50:44.304Z,34.40
2023-03-04T02:53:10.945Z,32.07
2023-03-04T02:55:37.577Z,33.63
2023-03-04T02:58:04.579Z,28.37
2023-03-04T03:00:31.279Z,33.17
2023-03-04T03:02:57.991Z,28.27
2023-03-04T03:05:27.476Z,27.90
2023-03-04T03:07:54.294Z,33.27
2023-03-04T03:10:21.036Z,29.23
2023-03-04T03:12:47.743Z,30.83
2023-03-04T03:15:14.676Z,33.83
2023-03-04T03:17:41.299Z,31.60
2023-03-04T03:20:09.701Z,31.80
2023-03-04T03:22:36.380Z,32.40
2023-03-04T03:25:03.800Z,28.07
2023-03-04T03:27:30.343Z,28.47
2023-03-04T03:29:58.130Z,31.60
2023-03-04T03:32:25.835Z,28.90
2023-03-04T03:34:57.625Z,31.53
2023-03-04T03:37:24.387Z,28.33
2023-03-04T03:39:51.024Z,28.90
2023-03-04T03:42:17.621Z,29.97
2023-03-04T03:44:44.511Z,29.70
2023-03-04T03:47:11.123Z,31.53
2023-03-04T03:49:37.731Z,28.07
2023-03-04T03:52:05.134Z,26.67
2023-03-04T03:54:31.728Z,25.23
2023-03-04T03:56:58.320Z,23.43
2023-03-04T03:59:25.034Z,23.83
2023-03-04T04:01:51.826Z,22.77
2023-03-04T04:04:18.859Z,27.77
2023-03-04T04:06:45.745Z,34.77
2023-03-04T04:09:12.387Z,25.43
2023-03-04T04:11:38.984Z,22.53
2023-03-04T04:14:05.743Z,24.83
2023-03-04T04:16:32.590Z,22.13
2023-03-04T04:18:59.285Z,23.87
2023-03-04T04:21:25.837Z,23.17
2023-03-04T04:23:52.484Z,24.20
2023-03-04T04:26:19.167Z,25.70
2023-03-04T04:28:45.735Z,21.83
2023-03-04T04:31:12.448Z,24.13
2023-03-04T04:33:39.452Z,22.67
2023-03-04T04:36:06.309Z,19.70
2023-03-04T04:38:32.896Z,17.57
2023-03-04T04:41:00.258Z,16.80
2023-03-04T04:43:26.935Z,15.67
2023-03-04T04:45:53.700Z,17.57
2023-03-04T04:48:20.343Z,15.63
2023-03-04T04:50:47.194Z,16.00
2023-03-04T04:53:14.409Z,19.20
2023-03-04T04:55:41.985Z,16.73
2023-03-04T04:58:08.700Z,16.70
2023-03-04T05:00:35.252Z,18.00
2023-03-04T05:03:01.819Z,18.63
2023-03-04T05:05:28.575Z,20.60
2023-03-04T05:07:55.272Z,17.87
2023-03-04T05:10:21.801Z,20.37
2023-03-04T05:12:50.252Z,21.63
2023-03-04T05:15:16.851Z,24.97
2023-03-04T05:17:47.038Z,20.70
2023-03-04T05:20:13.936Z,22.58
2023-03-04T05:22:40.640Z,21.00
2023-03-04T05:25:07.862Z,29.73
2023-03-04T05:27:34.656Z,75.63
2023-03-04T05:30:01.275Z,57.40
2023-03-04T05:32:28.600Z,48.07
2023-03-04T05:34:55.294Z,59.20
2023-03-04T05:37:21.847Z,50.97
2023-03-04T05:39:48.529Z,63.27
2023-03-04T05:42:15.154Z,56.23
2023-03-04T05:44:41.798Z,49.60
2023-03-04T05:47:08.535Z,53.83
2023-03-04T05:49:35.165Z,45.50
2023-03-04T05:52:01.839Z,39.23
2023-03-04T05:54:28.566Z,37.63
2023-03-04T05:56:55.221Z,43.67
2023-03-04T05:59:21.800Z,30.97
2023-03-04T06:01:49.450Z,33.70
2023-03-04T06:04:18.107Z,32.23
2023-03-04T06:06:47.348Z,29.83
2023-03-04T06:09:15.268Z,25.87
2023-03-04T06:11:41.865Z,31.73
2023-03-04T06:14:08.598Z,27.63
2023-03-04T06:16:35.321Z,29.07
2023-03-04T06:19:01.958Z,25.77
2023-03-04T06:21:28.676Z,26.17
2023-03-04T06:23:55.406Z,26.13
2023-03-04T06:26:22.152Z,23.77
2023-03-04T06:28:49.176Z,24.53
2023-03-04T06:31:15.868Z,24.30
2023-03-04T06:33:42.630Z,25.67
2023-03-04T06:36:09.415Z,30.33
2023-03-04T06:38:35.961Z,26.83
2023-03-04T06:41:10.758Z,26.40
2023-03-04T06:43:37.914Z,27.73
2023-03-04T06:46:06.509Z,26.93
2023-03-04T06:48:33.164Z,33.00
2023-03-04T06:51:06.049Z,29.60
2023-03-04T06:53:32.957Z,33.10
2023-03-04T06:55:59.712Z,25.13
2023-03-04T06:58:26.415Z,31.30
2023-03-04T07:00:53.098Z,28.80
2023-03-04T07:03:19.933Z,28.47
2023-03-04T07:05:46.639Z,25.77
2023-03-04T07:08:13.604Z,25.90
2023-03-04T07:10:40.327Z,26.27
2023-03-04T07:13:07.019Z,21.60
2023-03-04T07:15:33.622Z,18.50
2023-03-04T07:18:00.423Z,15.83
2023-03-04T07:20:27.061Z,19.23
2023-03-04T07:22:53.600Z,19.10
2023-03-04T07:25:20.309Z,19.40
2023-03-04T07:27:46.888Z,18.17
2023-03-04T07:30:13.912Z,16.93
2023-03-04T07:32:40.605Z,15.77
2023-03-04T07:35:07.784Z,18.00
2023-03-04T07:37:34.421Z,18.03
2023-03-04T07:40:01.574Z,19.73
2023-03-04T07:42:28.124Z,51.23
2023-03-04T07:45:00.188Z,17.40
2023-03-04T07:47:26.873Z,16.83
2023-03-04T07:49:53.666Z,15.87
2023-03-04T07:52:20.489Z,17.60
2023-03-04T07:54:47.141Z,16.33
2023-03-04T07:57:14.038Z,18.73
2023-03-04T07:59:40.715Z,17.00
2023-03-04T08:02:08.023Z,14.40
2023-03-04T08:04:34.607Z,13.63
2023-03-04T08:07:01.667Z,15.53
2023-03-04T08:09:28.544Z,15.23
2023-03-04T08:11:55.397Z,17.33
2023-03-04T08:14:23.964Z,13.40
2023-03-04T08:17:01.597Z,14.83
2023-03-04T08:19:28.307Z,14.73
2023-03-04T08:21:55.008Z,24.80
2023-03-04T08:24:21.964Z,13.67
2023-03-04T08:27:13.205Z,13.03
2023-03-04T08:29:40.525Z,14.73
2023-03-04T08:32:07.224Z,15.63
2023-03-04T08:34:33.962Z,15.17
2023-03-04T08:37:00.549Z,15.03
2023-03-04T08:39:27.446Z,14.00
2023-03-04T08:42:04.099Z,12.43
2023-03-04T08:44:41.692Z,13.63
2023-03-04T08:47:10.376Z,16.53
2023-03-04T08:49:36.980Z,18.83
2023-03-04T08:52:03.906Z,15.57
2023-03-04T08:54:30.847Z,17.50
2023-03-04T08:56:57.472Z,14.43
2023-03-04T08:59:24.334Z,16.43
2023-03-04T09:01:51.178Z,14.27
2023-03-04T09:04:17.893Z,14.87
2023-03-04T09:06:45.650Z,16.07
2023-03-04T09:09:12.374Z,16.13
2023-03-04T09:11:38.955Z,16.90
2023-03-04T09:14:05.678Z,17.70
2023-03-04T09:16:35.433Z,13.77
2023-03-04T09:19:02.040Z,17.48
2023-03-04T09:21:29.806Z,16.27
2023-03-04T09:23:56.411Z,15.97
2023-03-04T09:26:28.075Z,22.23
2023-03-04T09:29:30.266Z,17.87
2023-03-04T09:32:05.339Z,14.57
2023-03-04T09:34:32.171Z,20.33
2023-03-04T09:36:58.728Z,15.47
2023-03-04T09:39:25.418Z,15.80
2023-03-04T09:41:58.028Z,13.87
2023-03-04T09:44:39.928Z,17.33
2023-03-04T09:47:12.713Z,14.57
2023-03-04T09:49:42.567Z,13.83
2023-03-04T09:52:21.180Z,13.38
2023-03-04T09:55:06.860Z,17.43
2023-03-04T09:58:11.515Z,15.60
2023-03-04T10:00:52.096Z,16.60
2023-03-04T10:03:20.477Z,21.35
2023-03-04T10:06:01.079Z,23.57
2023-03-04T10:09:00.235Z,20.05
2023-03-04T10:11:36.137Z,24.67
2023-03-04T10:14:16.641Z,24.70
2023-03-04T10:16:49.600Z,38.35
2023-03-04T10:19:23.783Z,23.80
2023-03-04T10:21:52.184Z,36.73
2023-03-04T10:24:28.944Z,43.23
2023-03-04T10:27:05.397Z,51.00
2023-03-04T10:29:33.839Z,82.00
2023-03-04T10:32:00.723Z,82.03
2023-03-04T10:34:27.609Z,48.63
2023-03-04T10:37:02.826Z,40.53
2023-03-04T10:39:37.192Z,37.33
2023-03-04T10:42:27.905Z,31.33
2023-03-04T10:47:40.187Z,30.40
2023-03-04T10:50:07.521Z,27.50
2023-03-04T10:52:46.441Z,31.03
2023-03-04T10:55:20.288Z,30.23
2023-03-04T10:57:56.230Z,22.93
2023-03-04T11:00:40.996Z,24.57
2023-03-04T11:03:34.384Z,24.70
2023-03-04T11:06:06.811Z,22.90
2023-03-04T11:08:36.375Z,25.07
2023-03-04T11:11:03.094Z,23.53
2023-03-04T11:13:31.712Z,22.33
2023-03-04T11:16:04.134Z,21.40
2023-03-04T11:18:37.246Z,21.50
2023-03-04T11:21:09.128Z,20.70
2023-03-04T11:24:01.672Z,18.43
2023-03-04T11:26:48.604Z,23.00
2023-03-04T11:29:20.790Z,22.67
2023-03-04T11:32:10.489Z,22.77
2023-03-04T11:34:50.688Z,21.57
2023-03-04T11:37:26.148Z,25.27
2023-03-04T11:40:01.899Z,21.50
2023-03-04T11:42:51.668Z,20.87
2023-03-04T11:45:30.887Z,20.83
2023-03-04T11:48:28.747Z,20.23
2023-03-04T11:51:02.599Z,22.20
2023-03-04T11:53:52.340Z,22.50
2023-03-04T11:56:32.884Z,22.43
2023-03-04T11:59:17.487Z,20.92
2023-03-04T12:02:00.379Z,21.00
2023-03-04T12:04:40.451Z,25.80
2023-03-04T12:07:34.343Z,24.73
2023-03-04T12:10:42.831Z,24.83
2023-03-04T12:13:54.023Z,21.83
2023-03-04T12:19:56.393Z,23.97
2023-03-04T12:22:43.612Z,23.67
2023-03-04T12:25:40.497Z,20.30
2023-03-04T12:28:42.240Z,23.10
2023-03-04T12:31:11.511Z,21.13
2023-03-04T12:33:53.318Z,26.10
2023-03-04T12:36:44.202Z,20.43
2023-03-04T12:39:26.445Z,24.03
2023-03-04T12:42:05.128Z,22.17
2023-03-04T12:44:46.492Z,24.77
2023-03-04T12:47:33.230Z,25.63
2023-03-04T12:50:50.865Z,26.50
2023-03-04T12:53:42.812Z,26.57
2023-03-04T12:56:22.848Z,24.30
2023-03-04T12:58:50.043Z,26.90
2023-03-04T13:01:27.086Z,30.70
2023-03-04T13:03:59.864Z,29.70
2023-03-04T13:06:55.973Z,27.50
2023-03-04T13:09:29.758Z,24.30
2023-03-04T13:12:05.513Z,28.70
2023-03-04T13:14:33.324Z,31.47
2023-03-04T13:17:02.927Z,28.40
2023-03-04T13:19:52.698Z,73.93
2023-03-04T13:22:27.192Z,100.70
2023-03-04T13:24:54.875Z,75.87
2023-03-04T13:27:59.187Z,81.13
2023-03-04T13:30:31.885Z,42.43
2023-03-04T13:33:16.340Z,56.57
2023-03-04T13:35:47.220Z,37.80
2023-03-04T13:38:24.138Z,45.93
2023-03-04T13:41:21.863Z,38.87
2023-03-04T13:43:50.097Z,31.13
2023-03-04T13:46:19.791Z,33.90
2023-03-04T13:48:52.890Z,40.70
2023-03-04T13:51:32.759Z,34.17
2023-03-04T13:53:59.370Z,29.52
2023-03-04T13:56:29.235Z,28.43
2023-03-04T13:59:08.000Z,27.75
2023-03-04T14:01:34.585Z,28.63
2023-03-04T14:04:10.638Z,27.17
2023-03-04T14:06:45.785Z,32.07
2023-03-04T14:09:17.305Z,31.73
2023-03-04T14:11:44.421Z,28.53
2023-03-04T14:14:18.837Z,26.40
2023-03-04T14:16:53.208Z,25.93
2023-03-04T14:19:28.078Z,25.33
2023-03-04T14:21:55.359Z,20.43
2023-03-04T14:24:23.185Z,23.93
2023-03-04T14:26:50.688Z,25.17
2023-03-04T14:29:23.372Z,24.40
2023-03-04T14:31:50.470Z,28.33
2023-03-04T14:34:43.198Z,30.03
2023-03-04T14:37:24.840Z,27.63
2023-03-04T14:39:56.203Z,24.63
2023-03-04T14:42:26.477Z,25.67
2023-03-04T14:44:57.034Z,24.05
2023-03-04T14:49:59.322Z,24.27
2023-03-04T14:52:37.505Z,24.40
2023-03-04T14:55:27.105Z,25.93
2023-03-04T14:58:05.928Z,25.13
2023-03-04T15:00:35.129Z,23.73
2023-03-04T15:03:25.406Z,24.00
2023-03-04T15:05:53.052Z,23.20
2023-03-04T15:08:23.829Z,23.77
2023-03-04T15:11:03.815Z,24.53
2023-03-04T15:13:44.618Z,25.73
2023-03-04T15:18:54.300Z,25.97
2023-03-04T15:21:20.863Z,24.23
2023-03-04T15:23:47.658Z,23.50
2023-03-04T15:26:14.838Z,27.50
2023-03-04T15:28:42.463Z,28.60
2023-03-04T15:31:17.465Z,28.03
2023-03-04T15:33:45.454Z,26.03
2023-03-04T15:36:17.674Z,23.10
2023-03-04T15:38:47.872Z,26.63
2023-03-04T15:41:20.433Z,28.88
2023-03-04T15:43:47.183Z,22.70
2023-03-04T15:46:16.234Z,26.37
2023-03-04T15:48:43.638Z,25.05
2023-03-04T15:51:15.695Z,26.20
2023-03-04T15:53:50.151Z,30.20
2023-03-04T15:56:20.566Z,23.80
2023-03-04T15:58:55.996Z,24.52
2023-03-04T16:01:23.556Z,23.10
2023-03-04T16:03:53.126Z,23.60
2023-03-04T16:06:24.051Z,21.33
2023-03-04T16:11:23.929Z,21.10
2023-03-04T16:13:50.636Z,21.53
2023-03-04T16:16:18.919Z,25.73
2023-03-04T16:18:45.566Z,24.33
2023-03-04T16:21:15.955Z,26.60
2023-03-04T16:23:45.628Z,23.02
2023-03-04T16:26:14.861Z,22.27
2023-03-04T16:28:42.280Z,20.73
2023-03-04T16:31:12.175Z,20.60
2023-03-04T16:33:38.821Z,22.73
2023-03-04T16:36:15.070Z,19.50
2023-03-04T16:38:41.983Z,20.23
2023-03-04T16:41:13.179Z,22.43
2023-03-04T16:43:41.124Z,25.03
2023-03-04T16:46:07.882Z,24.60
2023-03-04T16:48:35.323Z,25.40
2023-03-04T16:51:27.581Z,23.80
2023-03-04T16:53:56.438Z,22.83
2023-03-04T16:56:23.403Z,24.33
2023-03-04T16:58:50.265Z,26.33
2023-03-04T17:01:26.127Z,24.37
2023-03-04T17:03:53.849Z,26.10
2023-03-04T17:06:21.349Z,26.37
2023-03-04T17:08:48.492Z,28.50
2023-03-04T17:11:20.915Z,27.20
2023-03-04T17:13:48.709Z,34.63
2023-03-04T17:16:15.616Z,28.30
2023-03-04T17:18:46.562Z,26.37
2023-03-04T17:21:15.546Z,28.07
2023-03-04T17:23:42.185Z,28.07
2023-03-04T17:26:09.512Z,32.87
2023-03-04T17:28:36.983Z,26.77
2023-03-04T17:31:14.932Z,26.63
2023-03-04T17:33:42.109Z,23.20
2023-03-04T17:36:11.966Z,25.70
2023-03-04T17:38:38.994Z,26.65
2023-03-04T17:41:07.303Z,26.10
2023-03-04T17:43:33.974Z,27.30
2023-03-04T17:46:06.713Z,28.60
2023-03-04T17:48:33.977Z,29.63
2023-03-04T17:51:00.976Z,30.90
2023-03-04T17:53:27.728Z,27.63
2023-03-04T17:55:56.769Z,26.10
2023-03-04T17:58:24.042Z,23.73
2023-03-04T18:00:52.690Z,25.63
2023-03-04T18:03:19.882Z,29.67
2023-03-04T18:05:46.489Z,25.83
2023-03-04T18:08:13.206Z,27.60
2023-03-04T18:10:45.040Z,25.33
2023-03-04T18:13:12.706Z,28.33
2023-03-04T18:15:39.300Z,33.90
2023-03-04T18:18:05.927Z,26.90
2023-03-04T18:20:33.084Z,31.60
2023-03-04T18:22:59.653Z,26.17
2023-03-04T18:25:26.492Z,28.37
2023-03-04T18:27:53.097Z,24.83
2023-03-04T18:30:23.171Z,23.50
2023-03-04T18:32:52.447Z,30.15
2023-03-04T18:35:19.960Z,27.27
2023-03-04T18:37:47.029Z,21.87
2023-03-04T18:40:14.578Z,24.30
2023-03-04T18:42:44.206Z,28.10
2023-03-04T18:45:16.059Z,32.00
2023-03-04T18:47:47.149Z,45.20
2023-03-04T18:50:13.877Z,41.13
2023-03-04T18:52:41.922Z,24.93
2023-03-04T18:55:09.801Z,31.30
2023-03-04T18:57:40.044Z,33.43
2023-03-04T19:00:11.173Z,35.25
2023-03-04T19:02:43.388Z,24.63
2023-03-04T19:05:21.373Z,25.50
2023-03-04T19:07:48.916Z,29.10
2023-03-04T19:10:15.724Z,29.03
2023-03-04T19:12:42.386Z,31.97
2023-03-04T19:15:10.558Z,26.57
2023-03-04T19:17:38.300Z,28.10
2023-03-04T19:20:07.768Z,29.37
2023-03-04T19:22:34.672Z,26.83
2023-03-04T19:25:02.347Z,28.37
2023-03-04T19:27:28.937Z,27.13
2023-03-04T19:29:56.481Z,25.43
2023-03-04T19:32:24.574Z,26.80
2023-03-04T19:34:51.861Z,28.80
2023-03-04T19:37:18.724Z,31.00
2023-03-04T19:39:46.300Z,34.57
2023-03-04T19:42:14.070Z,36.87
2023-03-04T19:44:43.747Z,34.07
2023-03-04T19:49:40.774Z,34.57
2023-03-04T19:52:07.347Z,34.93
2023-03-04T19:54:34.056Z,28.27
2023-03-04T19:57:00.633Z,26.27
2023-03-04T19:59:28.260Z,27.67
2023-03-04T20:01:55.333Z,22.20
2023-03-04T20:04:22.100Z,21.83
2023-03-04T20:06:50.796Z,18.47
2023-03-04T20:09:18.840Z,19.03
2023-03-04T20:11:57.585Z,17.23
2023-03-04T20:14:27.170Z,19.08
2023-03-04T20:16:54.057Z,16.97
2023-03-04T20:19:20.650Z,16.50
2023-03-04T20:21:47.298Z,11.47
2023-03-04T20:24:15.236Z,7.50
2023-03-04T20:26:42.790Z,8.27
2023-03-04T20:29:09.455Z,8.40
2023-03-04T20:31:39.489Z,5.53
2023-03-04T20:34:07.857Z,5.40
2023-03-04T20:36:34.993Z,4.70
2023-03-04T20:39:04.320Z,4.60
2023-03-04T20:41:35.144Z,3.47
2023-03-04T20:44:02.452Z,4.17
2023-03-04T20:46:31.871Z,6.17
2023-03-04T20:49:01.665Z,4.10
2023-03-04T20:51:30.222Z,4.60
2023-03-04T20:53:57.801Z,3.50
2023-03-04T20:56:25.786Z,3.13
2023-03-04T20:58:54.134Z,4.17
2023-03-04T21:01:22.237Z,6.27
2023-03-04T21:03:52.153Z,6.40
2023-03-04T21:06:19.435Z,6.72
2023-03-04T21:08:46.064Z,6.57
2023-03-04T21:11:14.097Z,5.87
2023-03-04T21:13:44.187Z,5.97
2023-03-04T21:16:13.326Z,12.07
2023-03-04T21:18:41.233Z,11.37
2023-03-04T21:21:19.748Z,11.53
2023-03-04T21:23:46.540Z,12.83
2023-03-04T21:26:13.132Z,17.13
2023-03-04T21:28:39.771Z,14.10
2023-03-04T21:31:10.184Z,13.50
2023-03-04T21:33:37.009Z,13.70
2023-03-04T21:36:04.225Z,12.10
2023-03-04T21:38:30.974Z,22.43
2023-03-04T21:40:59.981Z,16.27
2023-03-04T21:43:27.172Z,18.37
2023-03-04T21:46:00.243Z,24.43
2023-03-04T21:48:29.206Z,31.23
2023-03-04T21:51:01.792Z,29.77
2023-03-04T21:53:29.020Z,15.00
2023-03-04T21:55:56.397Z,13.97
2023-03-04T21:58:23.607Z,20.10
2023-03-04T22:00:52.262Z,16.50
2023-03-04T22:03:20.729Z,18.07
2023-03-04T22:05:48.899Z,15.47
2023-03-04T22:08:18.447Z,14.07
2023-03-04T22:10:46.450Z,17.47
2023-03-04T22:13:16.052Z,15.33
2023-03-04T22:15:45.025Z,15.00
2023-03-04T22:18:14.583Z,11.00
2023-03-04T22:20:43.566Z,10.57
2023-03-04T22:23:11.482Z,11.53
2023-03-04T22:25:41.110Z,10.97
2023-03-04T22:28:12.841Z,9.93
2023-03-04T22:30:40.154Z,14.67
2023-03-04T22:33:07.346Z,17.07
2023-03-04T22:35:34.677Z,14.30
2023-03-04T22:38:01.782Z,11.00
2023-03-04T22:40:29.004Z,12.37
2023-03-04T22:42:56.565Z,12.07
2023-03-04T22:45:26.982Z,7.37
2023-03-04T22:47:54.800Z,7.10
2023-03-04T22:50:22.924Z,5.93
2023-03-04T22:52:50.220Z,8.20
2023-03-04T22:55:19.447Z,8.13
2023-03-04T22:57:47.453Z,6.93
2023-03-04T23:00:24.884Z,8.37
2023-03-04T23:02:53.031Z,5.87
2023-03-04T23:05:23.218Z,9.77
2023-03-04T23:07:51.991Z,8.65
2023-03-04T23:10:22.907Z,4.13
2023-03-04T23:12:51.187Z,5.50
2023-03-04T23:15:19.642Z,5.17
2023-03-04T23:17:47.478Z,17.90
2023-03-04T23:20:17.932Z,13.83
2023-03-04T23:22:48.366Z,10.50
2023-03-04T23:25:17.047Z,9.75
2023-03-04T23:27:44.023Z,7.37
2023-03-04T23:30:15.618Z,6.83
2023-03-04T23:32:44.091Z,5.47
2023-03-04T23:35:11.435Z,7.37
2023-03-04T23:37:38.130Z,4.10
2023-03-04T23:40:05.637Z,3.60
2023-03-04T23:42:32.216Z,8.10
2023-03-04T23:44:58.827Z,6.23
2023-03-04T23:47:25.689Z,5.20
2023-03-04T23:49:52.336Z,5.33
2023-03-04T23:52:19.169Z,4.73
2023-03-04T23:54:45.902Z,4.83
2023-03-04T23:57:12.576Z,3.60
2023-03-04T23:59:40.195Z,3.67
